Time;durP1;ratioP1;P1;durP2;ratioP2;P2;SDS_P1;SDS_P2;PMS_P1;PMS_P2;Temp;Humidity;BMP_temperature;BMP_pressure;BME280_temperature;BME280_humidity;BME280_pressure;Samples;Min_cycle;Max_cycle;Signal;HPM_P1;HPM_P2
2022/11/08 00:18:45;;;;;;;3.17;1.80;;;6.50;99.90;;;;;;20974220;28;20035;-76
2022/11/08 00:28:46;;;;;;;3.50;2.10;;;6.40;99.90;;;;;;20973579;28;20498;-78
2022/11/08 00:38:47;;;;;;;4.60;2.00;;;6.40;99.90;;;;;;20979111;28;20058;-77
2022/11/08 00:48:47;;;;;;;6.23;2.33;;;6.30;99.90;;;;;;21006640;28;20032;-77
2022/11/08 00:58:48;;;;;;;3.77;1.80;;;6.20;99.90;;;;;;21006189;28;20029;-77
2022/11/08 01:08:49;;;;;;;;;;;6.20;99.90;;;;;;20999689;22;20052;-77
2022/11/08 01:18:52;;;;;;;3.72;2.20;;;6.20;99.90;;;;;;20884663;28;20027;-78
2022/11/08 01:28:54;;;;;;;5.10;2.08;;;6.10;99.90;;;;;;20832639;28;20037;-79
2022/11/08 01:38:56;;;;;;;6.43;2.88;;;6.00;99.90;;;;;;20847839;28;20240;-78
2022/11/08 01:49:25;;;;;;;10.15;3.35;;;6.00;99.90;;;;;;20849006;28;20043;-78
2022/11/08 01:59:27;;;;;;;7.50;3.42;;;5.80;99.90;;;;;;20829048;28;20482;-78
2022/11/08 02:09:30;;;;;;;12.18;3.90;;;6.00;99.90;;;;;;20843762;28;20038;-78
2022/11/08 02:19:46;;;;;;;11.98;2.80;;;5.90;99.90;;;;;;20910511;28;20029;-78
2022/11/08 02:29:54;;;;;;;5.45;2.88;;;5.70;99.90;;;;;;20926250;28;20031;-77
2022/11/08 02:39:55;;;;;;;10.65;3.97;;;5.80;99.90;;;;;;20924346;28;20108;-78
2022/11/08 02:49:55;;;;;;;;;;;5.80;99.90;;;;;;20924060;28;20036;-78
2022/11/08 02:59:56;;;;;;;9.17;3.53;;;5.70;99.90;;;;;;20922564;28;20362;-76
2022/11/08 03:09:57;;;;;;;;;;;5.40;99.90;;;;;;20922357;28;20036;-77
2022/11/08 03:19:58;;;;;;;7.03;3.97;;;5.40;99.90;;;;;;20921004;28;19913;-78
2022/11/08 03:29:58;;;;;;;7.22;3.75;;;5.30;99.90;;;;;;20900615;28;20109;-78
2022/11/08 03:39:59;;;;;;;;;;;5.20;99.90;;;;;;20924079;28;20032;-78
2022/11/08 03:50:00;;;;;;;6.47;3.73;;;5.10;99.90;;;;;;20921445;28;20283;-77
2022/11/08 04:00:01;;;;;;;10.10;5.38;;;4.80;99.90;;;;;;20915264;28;20027;-77
2022/11/08 04:10:03;;;;;;;22.80;5.68;;;4.60;99.90;;;;;;20913113;28;20041;-78
2022/11/08 04:30:23;;;;;;;9.55;5.90;;;4.20;99.90;;;;;;20911523;28;20041;-78
2022/11/08 04:40:24;;;;;;;12.35;5.88;;;4.30;99.90;;;;;;20912730;28;20118;-77
2022/11/08 04:50:25;;;;;;;9.63;5.78;;;4.20;99.90;;;;;;20930179;28;20025;-78
2022/11/08 05:00:26;;;;;;;15.13;6.50;;;4.30;99.90;;;;;;20969080;28;20093;-79
2022/11/08 05:10:27;;;;;;;87.18;10.40;;;4.20;99.90;;;;;;20947929;28;20036;-78
2022/11/08 05:30:54;;;;;;;18.70;7.30;;;4.10;99.90;;;;;;20957645;28;20033;-78
2022/11/08 05:40:59;;;;;;;15.20;8.07;;;4.20;99.90;;;;;;20958288;28;20043;-81
2022/11/08 05:51:01;;;;;;;13.70;6.95;;;4.10;99.90;;;;;;20924647;28;20055;-79
2022/11/08 06:01:10;;;;;;;11.85;6.10;;;4.10;99.90;;;;;;20889981;28;20124;-78
2022/11/08 06:11:13;;;;;;;10.63;5.55;;;4.20;99.90;;;;;;20833959;28;20037;-78
2022/11/08 06:21:17;;;;;;;10.82;6.13;;;4.20;99.90;;;;;;20825089;28;20089;-79
2022/11/08 06:31:17;;;;;;;12.45;5.88;;;4.30;99.90;;;;;;20906122;28;20098;-78
2022/11/08 06:41:19;;;;;;;9.80;5.75;;;4.20;99.90;;;;;;20926707;28;20053;-78
2022/11/08 06:51:20;;;;;;;13.77;5.15;;;4.20;99.90;;;;;;20927632;28;20178;-78
2022/11/08 07:01:20;;;;;;;12.25;6.50;;;4.30;99.90;;;;;;20906786;28;20041;-77
2022/11/08 07:11:21;;;;;;;12.35;7.18;;;4.30;99.90;;;;;;20927631;22;20040;-75
2022/11/08 07:21:22;;;;;;;;;;;5.30;99.90;;;;;;20872170;28;20021;-75
2022/11/08 07:31:23;;;;;;;8.00;4.37;;;6.80;99.90;;;;;;20814815;28;19912;-76
2022/11/08 07:41:23;;;;;;;5.20;3.88;;;7.40;99.90;;;;;;20860981;28;20314;-75
2022/11/08 07:51:24;;;;;;;6.93;4.40;;;6.40;99.90;;;;;;20825129;28;20034;-75
2022/11/08 08:01:25;;;;;;;7.20;4.38;;;6.10;99.90;;;;;;20807870;28;20037;-75
2022/11/08 08:11:26;;;;;;;10.17;6.10;;;6.30;99.90;;;;;;20824834;28;20438;-76
2022/11/08 08:21:26;;;;;;;12.52;7.78;;;6.10;99.90;;;;;;20807296;28;20292;-75
2022/11/08 08:31:27;;;;;;;;;;;6.00;99.90;;;;;;20807543;28;20037;-75
2022/11/08 08:41:28;;;;;;;146.27;14.37;;;5.90;99.90;;;;;;20824721;28;19917;-76
2022/11/08 08:51:29;;;;;;;;;;;5.60;99.90;;;;;;20824365;28;20554;-76
2022/11/08 09:01:29;;;;;;;22.37;10.40;;;5.80;99.90;;;;;;20831985;28;19919;-76
2022/11/08 09:11:30;;;;;;;;;;;6.60;99.90;;;;;;20838743;28;20048;-76
2022/11/08 09:21:31;;;;;;;20.37;9.90;;;6.30;99.90;;;;;;20803895;28;20370;-76
2022/11/08 09:31:31;;;;;;;;;;;6.00;99.90;;;;;;20837426;28;20053;-75
2022/11/08 09:42:13;;;;;;;26.40;11.67;;;6.00;99.90;;;;;;20836310;28;19913;-75
2022/11/08 09:52:23;;;;;;;33.30;15.25;;;6.00;99.90;;;;;;20834722;28;20049;-76
2022/11/08 10:02:26;;;;;;;29.33;14.83;;;6.30;99.90;;;;;;20800782;28;20123;-76
2022/11/08 10:13:02;;;;;;;27.38;14.20;;;6.60;99.90;;;;;;20833364;28;20120;-75
2022/11/08 10:23:29;;;;;;;17.40;10.50;;;7.10;99.90;;;;;;20719598;28;20518;-76
2022/11/08 10:33:52;;;;;;;14.93;8.50;;;8.10;99.90;;;;;;20832349;28;20107;-75
2022/11/08 10:44:14;;;;;;;10.77;6.68;;;8.70;99.90;;;;;;20813976;28;20036;-75
2022/11/08 10:54:53;;;;;;;16.85;6.88;;;9.00;99.90;;;;;;20830857;28;20499;-76
2022/11/08 11:05:17;;;;;;;10.40;6.00;;;9.00;99.90;;;;;;20829993;28;20030;-76
2022/11/08 11:15:18;;;;;;;15.15;6.47;;;9.10;99.90;;;;;;20828969;28;20076;-76
2022/11/08 11:25:21;;;;;;;8.23;5.37;;;9.20;99.90;;;;;;20827651;28;20403;-75
2022/11/08 11:35:26;;;;;;;9.93;6.00;;;9.30;99.90;;;;;;20809817;28;20491;-76
2022/11/08 11:45:47;;;;;;;7.43;5.45;;;9.60;99.90;;;;;;20826923;28;20040;-76
2022/11/08 11:55:53;;;;;;;7.75;5.13;;;9.70;99.90;;;;;;20826331;28;20025;-76
2022/11/08 12:06:08;;;;;;;7.32;4.78;;;10.40;99.90;;;;;;20825483;28;20030;-76
2022/11/08 12:16:22;;;;;;;7.85;4.30;;;10.90;99.90;;;;;;20825143;28;20044;-76
2022/11/08 12:26:41;;;;;;;10.65;4.70;;;11.40;99.90;;;;;;20824695;28;20068;-76
2022/11/08 12:37:06;;;;;;;6.22;4.22;;;11.70;99.90;;;;;;20835638;28;20036;-76
2022/11/08 12:47:41;;;;;;;7.60;4.68;;;11.40;99.90;;;;;;20822844;28;20083;-76
2022/11/08 12:57:44;;;;;;;8.07;4.35;;;13.60;99.90;;;;;;20839662;28;20080;-76
2022/11/08 13:07:51;;;;;;;5.82;3.42;;;13.80;99.90;;;;;;20865407;22;20718;-76
2022/11/08 13:18:05;;;;;;;12.00;3.65;;;14.50;99.90;;;;;;21070182;28;20093;-76
2022/11/08 13:28:39;;;;;;;5.82;2.92;;;14.70;99.90;;;;;;21088401;28;20047;-76
2022/11/08 13:38:50;;;;;;;5.15;3.03;;;14.60;99.90;;;;;;21032539;28;20043;-76
2022/11/08 13:48:57;;;;;;;7.10;3.40;;;14.10;99.90;;;;;;21061386;28;20048;-76
2022/11/08 13:58:58;;;;;;;7.13;3.17;;;13.70;99.90;;;;;;21058875;28;20024;-75
2022/11/08 14:09:09;;;;;;;7.37;3.20;;;13.50;99.90;;;;;;21046925;28;20039;-74
2022/11/08 14:19:24;;;;;;;7.50;3.20;;;13.20;99.90;;;;;;21074804;28;20047;-75
2022/11/08 14:29:25;;;;;;;5.47;3.40;;;13.10;99.90;;;;;;21046164;28;20032;-75
2022/11/08 14:39:32;;;;;;;6.37;2.67;;;12.70;99.90;;;;;;21019323;28;20036;-75
2022/11/08 14:49:35;;;;;;;5.43;2.53;;;12.60;99.90;;;;;;21068757;28;20575;-74
2022/11/08 14:59:36;;;;;;;6.70;2.92;;;12.40;99.90;;;;;;21073394;28;20055;-74
2022/11/08 15:09:37;;;;;;;4.87;2.90;;;12.30;99.90;;;;;;21079802;28;20040;-74
2022/11/08 15:19:45;;;;;;;7.77;2.77;;;12.20;99.90;;;;;;21078170;28;20046;-75
2022/11/08 15:29:58;;;;;;;13.90;3.65;;;12.10;99.90;;;;;;21076780;28;20508;-75
2022/11/08 15:40:40;;;;;;;11.23;4.05;;;11.70;99.90;;;;;;21074926;28;20023;-74
2022/11/08 15:50:44;;;;;;;9.55;3.70;;;11.30;99.90;;;;;;21076633;28;20502;-75
2022/11/08 16:00:46;;;;;;;22.43;4.03;;;11.10;99.90;;;;;;21076868;28;20064;-75
2022/11/08 16:10:50;;;;;;;37.47;12.70;;;11.00;99.90;;;;;;21044136;28;20065;-76
2022/11/08 16:20:51;;;;;;;7.38;3.15;;;10.90;99.90;;;;;;21077234;28;20043;-76
2022/11/08 16:30:52;;;;;;;6.13;2.90;;;10.70;99.90;;;;;;21060142;28;20056;-74
2022/11/08 16:40:53;;;;;;;14.77;5.63;;;10.60;99.90;;;;;;21075767;28;20055;-76
2022/11/08 16:51:00;;;;;;;6.32;2.78;;;10.60;99.90;;;;;;21075981;28;20096;-74
2022/11/08 17:01:06;;;;;;;17.67;6.95;;;10.40;99.90;;;;;;21057458;28;20036;-75
2022/11/08 17:11:08;;;;;;;4.40;2.70;;;10.30;99.90;;;;;;21075087;28;20044;-77
2022/11/08 17:21:12;;;;;;;5.57;3.92;;;10.20;99.90;;;;;;21079884;28;20024;-76
2022/11/08 17:31:15;;;;;;;12.02;4.15;;;10.10;99.90;;;;;;21091989;28;20059;-78
2022/11/08 17:41:16;;;;;;;6.03;3.15;;;10.10;99.90;;;;;;21067967;28;20078;-76
2022/11/08 17:51:17;;;;;;;6.10;3.28;;;10.10;99.90;;;;;;21086003;28;20039;-77
2022/11/08 18:01:18;;;;;;;16.70;2.77;;;10.00;99.90;;;;;;21085312;28;20035;-75
2022/11/08 18:11:18;;;;;;;5.53;2.93;;;9.80;99.90;;;;;;21078766;28;20065;-76
2022/11/08 18:21:19;;;;;;;6.03;3.00;;;9.70;99.90;;;;;;21073809;28;20036;-75
2022/11/08 18:31:21;;;;;;;7.10;3.23;;;9.70;99.90;;;;;;21037815;28;20395;-76
2022/11/08 18:41:28;;;;;;;5.30;3.08;;;9.70;99.90;;;;;;21032861;28;20390;-75
2022/11/08 18:51:29;;;;;;;4.45;2.40;;;9.70;99.90;;;;;;21060631;28;20024;-76
2022/11/08 19:01:30;;;;;;;9.20;3.40;;;9.50;99.90;;;;;;21069361;28;20032;-75
2022/11/08 19:11:31;;;;;;;6.10;3.27;;;9.60;99.90;;;;;;21052786;22;20727;-76
2022/11/08 19:21:33;;;;;;;12.70;5.60;;;9.60;99.90;;;;;;20976160;28;20509;-77
2022/11/08 19:31:35;;;;;;;7.10;3.00;;;9.50;99.90;;;;;;20993592;28;20639;-77
2022/11/08 19:41:36;;;;;;;5.30;2.92;;;9.50;99.90;;;;;;20957986;28;20060;-77
2022/11/08 19:51:37;;;;;;;6.00;3.50;;;9.50;99.90;;;;;;20908744;28;20029;-77
2022/11/08 20:01:41;;;;;;;7.00;2.88;;;9.50;99.90;;;;;;20908025;28;20036;-77
2022/11/08 20:11:42;;;;;;;6.03;3.38;;;9.50;99.90;;;;;;20949984;28;20488;-77
2022/11/08 20:21:44;;;;;;;4.60;2.87;;;9.40;99.90;;;;;;20910524;28;20123;-78
2022/11/08 20:31:48;;;;;;;7.97;3.08;;;9.30;99.90;;;;;;20890050;28;20037;-78
2022/11/08 20:41:49;;;;;;;12.10;4.90;;;9.30;99.90;;;;;;20911931;28;20083;-77
2022/11/08 20:51:49;;;;;;;9.33;4.37;;;9.20;99.90;;;;;;20908533;28;20105;-77
2022/11/08 21:01:50;;;;;;;10.27;4.80;;;9.00;99.90;;;;;;20877061;28;20108;-77
2022/11/08 21:11:51;;;;;;;11.97;5.17;;;8.90;99.90;;;;;;20879660;28;20550;-78
2022/11/08 21:22:13;;;;;;;10.32;4.28;;;8.80;99.90;;;;;;20877470;28;20024;-77
2022/11/08 21:32:13;;;;;;;5.47;3.20;;;8.80;99.90;;;;;;20876815;28;20451;-77
2022/11/08 21:42:13;;;;;;;3.97;2.80;;;8.80;99.90;;;;;;20876415;28;20041;-77
2022/11/08 21:52:14;;;;;;;11.40;3.40;;;8.80;99.90;;;;;;20857568;28;20510;-77
2022/11/08 22:02:15;;;;;;;6.67;4.17;;;8.80;99.90;;;;;;20851947;28;20034;-77
2022/11/08 22:12:16;;;;;;;6.03;3.57;;;8.80;99.90;;;;;;20809450;28;20032;-78
2022/11/08 22:22:17;;;;;;;6.10;3.35;;;8.80;99.90;;;;;;20918144;28;20036;-77
2022/11/08 22:32:18;;;;;;;7.20;4.10;;;8.90;99.90;;;;;;20932948;28;20028;-78
2022/11/08 22:42:18;;;;;;;6.50;3.47;;;8.90;99.90;;;;;;21001651;28;20418;-78
2022/11/08 22:52:19;;;;;;;9.40;3.97;;;8.80;99.90;;;;;;21001325;28;20031;-78
2022/11/08 23:02:20;;;;;;;7.73;4.13;;;8.40;99.90;;;;;;20999164;28;20028;-77
2022/11/08 23:32:59;;;;;;;9.55;5.50;;;8.40;99.90;;;;;;20914768;28;20044;-77
2022/11/08 23:53:28;;;;;;;11.60;5.47;;;8.30;99.90;;;;;;20912052;28;20043;-78
